Time;durP1;ratioP1;P1;durP2;ratioP2;P2;SDS_P1;SDS_P2;PMS_P1;PMS_P2;Temp;Humidity;BMP_temperature;BMP_pressure;BME280_temperature;BME280_humidity;BME280_pressure;Samples;Min_cycle;Max_cycle;Signal;HPM_P1;HPM_P2
2021/04/10 00:00:20;;;;;;;24.13;13.57;;;4.50;77.20;;;;;;4939054;28;20203;-80
2021/04/10 00:03:08;;;;;;;23.10;13.50;;;4.40;77.70;;;;;;4941899;29;20195;-81
2021/04/10 00:05:36;;;;;;;19.47;12.80;;;4.20;78.30;;;;;;4951017;28;20208;-82
2021/04/10 00:08:07;;;;;;;22.20;12.27;;;4.10;79.00;;;;;;4941598;29;20210;-82
2021/04/10 00:10:35;;;;;;;24.63;13.07;;;4.00;79.40;;;;;;4943322;28;20212;-83
2021/04/10 00:13:03;;;;;;;20.53;12.43;;;4.00;79.70;;;;;;4955061;28;20219;-82
2021/04/10 00:15:32;;;;;;;20.33;12.93;;;3.90;79.90;;;;;;4941006;28;20432;-82
2021/04/10 00:18:01;;;;;;;23.83;13.37;;;3.70;79.90;;;;;;4945970;28;20204;-82
2021/04/10 00:20:28;;;;;;;24.40;14.10;;;3.60;80.50;;;;;;4947291;28;20191;-79
2021/04/10 00:22:56;;;;;;;23.87;14.00;;;3.40;80.80;;;;;;4945497;28;20188;-84
2021/04/10 00:25:25;;;;;;;22.90;13.63;;;3.20;80.70;;;;;;4948052;28;20201;-80
2021/04/10 00:27:56;;;;;;;21.40;12.83;;;3.10;80.60;;;;;;4941486;29;20203;-81
2021/04/10 00:30:24;;;;;;;25.57;13.43;;;2.90;81.40;;;;;;4941615;29;20210;-82
2021/04/10 00:32:53;;;;;;;22.70;13.83;;;2.80;81.80;;;;;;4939883;29;20205;-83
2021/04/10 00:35:20;;;;;;;31.27;14.43;;;2.60;81.70;;;;;;4946942;28;20195;-81
2021/04/10 00:37:48;;;;;;;27.37;14.57;;;2.50;81.80;;;;;;4938436;29;20264;-82
2021/04/10 00:40:18;;;;;;;26.03;14.67;;;2.40;82.50;;;;;;4941092;28;20265;-82
2021/04/10 00:42:45;;;;;;;27.03;15.27;;;2.30;83.30;;;;;;4940834;29;20202;-79
2021/04/10 00:45:14;;;;;;;28.70;15.83;;;2.30;83.20;;;;;;4935705;29;20229;-80
2021/04/10 00:47:41;;;;;;;28.00;15.30;;;2.20;83.00;;;;;;4932947;29;20253;-81
2021/04/10 00:50:11;;;;;;;27.77;15.17;;;2.10;82.90;;;;;;4935179;28;20221;-81
2021/04/10 00:52:41;;;;;;;26.90;16.30;;;2.00;83.60;;;;;;4923537;29;20213;-82
2021/04/10 00:55:12;;;;;;;29.43;15.00;;;1.90;83.50;;;;;;4933436;28;20207;-80
2021/04/10 00:57:39;;;;;;;29.07;15.20;;;1.80;84.20;;;;;;4925612;29;20332;-82
2021/04/10 01:00:08;;;;;;;26.97;15.23;;;1.80;85.10;;;;;;4950583;28;20287;-79
2021/04/10 01:02:36;;;;;;;26.47;15.20;;;1.80;84.50;;;;;;4937495;28;20201;-83
2021/04/10 01:05:06;;;;;;;31.43;15.77;;;1.80;85.30;;;;;;4928170;28;20744;-80
2021/04/10 01:07:34;;;;;;;25.63;14.60;;;1.70;85.20;;;;;;4930617;28;20202;-83
2021/04/10 01:10:03;;;;;;;24.33;14.93;;;1.80;86.00;;;;;;4930121;29;20187;-81
2021/04/10 01:12:46;;;;;;;26.83;15.30;;;1.80;85.90;;;;;;4950114;28;20202;-82
2021/04/10 01:15:24;;;;;;;25.73;15.07;;;1.80;86.30;;;;;;4950906;28;20189;-81
2021/04/10 01:17:59;;;;;;;28.37;14.60;;;1.80;86.50;;;;;;4927979;28;20244;-82
2021/04/10 01:20:50;;;;;;;23.50;14.77;;;1.70;86.60;;;;;;4920869;29;20206;-84
2021/04/10 01:23:57;;;;;;;24.47;15.60;;;1.80;87.00;;;;;;4922647;29;20212;-82
2021/04/10 01:26:54;;;;;;;25.93;14.67;;;1.90;86.60;;;;;;4941075;29;20645;-82
2021/04/10 01:29:26;;;;;;;24.30;15.40;;;1.70;86.40;;;;;;4883412;29;20270;-80
2021/04/10 01:31:56;;;;;;;25.17;15.50;;;1.70;86.30;;;;;;4927352;29;20638;-83
2021/04/10 01:34:28;;;;;;;25.30;14.87;;;1.60;86.30;;;;;;4921910;29;20211;-81
2021/04/10 01:36:59;;;;;;;24.43;15.23;;;1.60;87.00;;;;;;4925277;28;20256;-81
2021/04/10 01:39:28;;;;;;;29.03;15.83;;;1.60;86.90;;;;;;4928693;29;20836;-82
2021/04/10 01:41:55;;;;;;;24.37;15.00;;;1.50;87.00;;;;;;4921066;29;20804;-83
2021/04/10 01:44:25;;;;;;;21.83;14.70;;;1.60;87.40;;;;;;4923462;29;20194;-83
2021/04/10 01:46:54;;;;;;;24.40;15.43;;;1.50;88.10;;;;;;4923097;29;20197;-82
2021/04/10 01:49:23;;;;;;;25.97;15.37;;;1.60;88.90;;;;;;4927165;29;20564;-81
2021/04/10 01:51:51;;;;;;;23.93;15.90;;;1.70;88.70;;;;;;4924267;29;20261;-81
2021/04/10 01:54:20;;;;;;;29.57;16.20;;;1.70;89.10;;;;;;4928181;29;20261;-81
2021/04/10 01:56:49;;;;;;;26.17;15.33;;;1.80;89.40;;;;;;4927175;28;20682;-81
2021/04/10 01:59:18;;;;;;;22.30;14.97;;;1.80;88.40;;;;;;4926354;29;20702;-83
2021/04/10 02:01:49;;;;;;;26.97;15.67;;;1.80;88.40;;;;;;4927461;28;20211;-83
2021/04/10 02:04:19;;;;;;;28.50;15.87;;;1.80;88.50;;;;;;4931643;29;20614;-83
2021/04/10 02:06:50;;;;;;;25.20;15.20;;;1.70;88.30;;;;;;4916099;28;20585;-82
2021/04/10 02:09:19;;;;;;;25.67;15.77;;;1.80;88.20;;;;;;4928427;29;20214;-80
2021/04/10 02:11:49;;;;;;;30.23;15.07;;;1.80;89.30;;;;;;4923225;29;20217;-81
2021/04/10 02:14:18;;;;;;;30.37;15.93;;;1.90;90.00;;;;;;4929461;29;20296;-81
2021/04/10 02:16:50;;;;;;;23.13;15.40;;;2.00;89.90;;;;;;4925760;29;20799;-81
2021/04/10 02:19:18;;;;;;;22.30;14.43;;;2.30;89.10;;;;;;4924362;29;20206;-82
2021/04/10 02:21:46;;;;;;;25.53;15.33;;;2.40;87.90;;;;;;4941680;29;20202;-81
2021/04/10 02:24:13;;;;;;;22.53;15.20;;;2.40;87.40;;;;;;4942698;29;20259;-83
2021/04/10 02:26:41;;;;;;;25.47;15.13;;;2.40;87.50;;;;;;4931313;29;20202;-83
2021/04/10 02:29:10;;;;;;;22.43;13.83;;;2.50;87.80;;;;;;4951908;28;20661;-81
2021/04/10 02:31:44;;;;;;;23.87;15.83;;;2.50;87.10;;;;;;4941329;29;20210;-84
2021/04/10 02:34:16;;;;;;;27.00;15.03;;;2.30;86.70;;;;;;4945434;29;20278;-80
2021/04/10 02:36:47;;;;;;;25.13;15.43;;;2.20;86.60;;;;;;4941712;28;20226;-80
2021/04/10 02:39:15;;;;;;;23.67;14.47;;;2.10;86.70;;;;;;4946910;29;20198;-80
2021/04/10 02:41:47;;;;;;;27.63;15.37;;;2.00;86.90;;;;;;4943386;29;20206;-83
2021/04/10 02:44:21;;;;;;;24.17;14.67;;;1.90;87.60;;;;;;4933114;28;20783;-81
2021/04/10 02:46:50;;;;;;;25.03;14.33;;;1.80;87.30;;;;;;4941203;29;20198;-80
2021/04/10 02:49:26;;;;;;;24.77;14.80;;;1.70;87.60;;;;;;4941553;28;20233;-81
2021/04/10 02:51:56;;;;;;;31.47;15.70;;;1.60;88.80;;;;;;4951947;28;20206;-80
2021/04/10 02:54:28;;;;;;;27.90;15.97;;;1.50;88.30;;;;;;4944441;28;20206;-81
2021/04/10 02:57:02;;;;;;;23.57;14.93;;;1.40;88.70;;;;;;4934817;28;20599;-81
2021/04/10 02:59:30;;;;;;;29.83;14.90;;;1.40;89.90;;;;;;4942772;29;20213;-79
2021/04/10 03:01:58;;;;;;;28.57;15.77;;;1.30;89.90;;;;;;4935057;29;20221;-83
2021/04/10 03:04:28;;;;;;;28.90;15.13;;;1.30;90.10;;;;;;4930691;28;20206;-81
2021/04/10 03:06:56;;;;;;;35.27;16.33;;;1.30;90.10;;;;;;4924878;28;20617;-82
2021/04/10 03:09:25;;;;;;;30.00;15.37;;;1.30;90.50;;;;;;4923162;29;20566;-82
2021/04/10 03:11:53;;;;;;;27.97;15.80;;;1.10;90.20;;;;;;4927720;29;20519;-82
2021/04/10 03:14:21;;;;;;;27.40;15.73;;;1.20;90.20;;;;;;4931583;28;20210;-82
2021/04/10 03:16:50;;;;;;;26.17;14.77;;;1.20;90.70;;;;;;4927652;29;20234;-82
2021/04/10 03:19:19;;;;;;;25.20;15.73;;;1.20;90.50;;;;;;4937233;29;20600;-83
2021/04/10 03:21:50;;;;;;;26.70;15.50;;;1.10;90.20;;;;;;4939995;28;20276;-80
2021/04/10 03:24:17;;;;;;;26.07;15.57;;;1.10;90.40;;;;;;4955728;28;20212;-80
2021/04/10 03:26:46;;;;;;;27.87;15.50;;;1.00;90.90;;;;;;4947340;28;20206;-81
2021/04/10 03:29:14;;;;;;;26.70;15.40;;;1.30;91.60;;;;;;4933283;29;20203;-80
2021/04/10 03:31:42;;;;;;;25.13;15.47;;;1.10;91.50;;;;;;4942688;28;20194;-82
2021/04/10 03:34:10;;;;;;;22.27;14.57;;;1.10;90.90;;;;;;4952244;28;20202;-83
2021/04/10 03:36:39;;;;;;;32.77;17.50;;;1.10;91.00;;;;;;4944563;28;20452;-82
2021/04/10 03:39:07;;;;;;;44.23;25.60;;;1.00;91.10;;;;;;4939269;29;20539;-81
2021/04/10 03:41:36;;;;;;;37.27;20.27;;;1.00;91.20;;;;;;4940123;29;20210;-81
2021/04/10 03:44:04;;;;;;;48.57;24.23;;;1.00;91.80;;;;;;4936519;29;20210;-82
2021/04/10 03:46:34;;;;;;;42.63;24.47;;;1.00;92.20;;;;;;4930714;29;20311;-80
2021/04/10 03:49:03;;;;;;;42.37;24.17;;;1.00;92.30;;;;;;4942053;28;20289;-82
2021/04/10 03:51:31;;;;;;;41.00;23.43;;;0.90;92.20;;;;;;4943023;28;20204;-82
2021/04/10 03:53:59;;;;;;;45.63;23.80;;;1.00;93.20;;;;;;4948817;28;20253;-83
2021/04/10 03:56:28;;;;;;;41.90;23.50;;;1.00;92.70;;;;;;4945551;28;20245;-83
2021/04/10 03:58:55;;;;;;;37.07;21.67;;;1.00;92.50;;;;;;4951953;28;20201;-82
2021/04/10 04:01:23;;;;;;;35.03;19.97;;;1.00;92.50;;;;;;4947958;29;20202;-83
2021/04/10 04:03:51;;;;;;;36.37;20.43;;;1.00;92.90;;;;;;4942841;28;20253;-82
2021/04/10 04:06:19;;;;;;;26.40;17.47;;;1.00;92.80;;;;;;4947101;28;20190;-81
2021/04/10 04:08:46;;;;;;;29.60;17.33;;;0.90;92.60;;;;;;4947226;28;20269;-84
2021/04/10 04:11:14;;;;;;;25.53;16.33;;;0.80;92.70;;;;;;4942317;29;20210;-82
2021/04/10 04:13:42;;;;;;;27.33;16.77;;;0.70;92.90;;;;;;4936008;29;20206;-85
2021/04/10 04:16:10;;;;;;;28.70;15.67;;;0.80;93.00;;;;;;4927765;29;20251;-82
2021/04/10 04:18:38;;;;;;;33.63;18.57;;;0.80;93.20;;;;;;4947673;28;20213;-83
2021/04/10 04:21:06;;;;;;;28.00;17.43;;;0.80;93.20;;;;;;4944109;28;20225;-81
2021/04/10 04:23:33;;;;;;;43.30;23.10;;;0.80;93.10;;;;;;4945171;29;20195;-80
2021/04/10 04:26:01;;;;;;;54.37;32.03;;;0.80;94.00;;;;;;4941066;29;20211;-82
2021/04/10 04:28:29;;;;;;;68.00;37.23;;;0.90;93.90;;;;;;4940345;28;20217;-81
2021/04/10 04:30:59;;;;;;;49.40;29.53;;;1.00;93.40;;;;;;4937812;29;20211;-82
2021/04/10 04:33:27;;;;;;;37.53;23.27;;;1.00;92.90;;;;;;4918656;29;20270;-83
2021/04/10 04:35:54;;;;;;;29.87;19.27;;;1.00;93.20;;;;;;4930141;29;21519;-84
2021/04/10 04:38:22;;;;;;;32.67;19.77;;;1.00;93.20;;;;;;4939622;28;20232;-83
2021/04/10 04:40:50;;;;;;;29.50;18.10;;;1.00;93.20;;;;;;4935777;28;20209;-82
2021/04/10 04:43:18;;;;;;;28.93;17.87;;;1.10;93.20;;;;;;4936926;29;20185;-84
2021/04/10 04:45:46;;;;;;;31.73;17.10;;;1.10;93.20;;;;;;4923187;29;21036;-82
2021/04/10 04:48:14;;;;;;;25.60;16.80;;;1.10;93.90;;;;;;4919278;29;20241;-83
2021/04/10 04:50:42;;;;;;;27.63;16.00;;;1.40;94.10;;;;;;4926526;29;20202;-81
2021/04/10 04:53:10;;;;;;;26.73;15.23;;;1.50;93.50;;;;;;4926295;29;20209;-83
2021/04/10 04:55:37;;;;;;;23.60;15.57;;;1.70;92.40;;;;;;4932375;29;20625;-82
2021/04/10 04:58:05;;;;;;;26.00;14.83;;;1.90;91.70;;;;;;4930410;28;20320;-82
2021/04/10 05:00:33;;;;;;;24.07;15.30;;;2.10;91.80;;;;;;4925903;28;20206;-83
2021/04/10 05:03:00;;;;;;;27.00;15.80;;;2.30;91.30;;;;;;4931178;29;20821;-81
2021/04/10 05:05:29;;;;;;;28.93;15.57;;;2.60;91.60;;;;;;4930764;28;20869;-82
2021/04/10 05:07:56;;;;;;;25.17;14.37;;;2.80;91.70;;;;;;4933762;29;20206;-80
2021/04/10 05:10:24;;;;;;;24.97;15.03;;;3.20;91.60;;;;;;4937771;29;20214;-82
2021/04/10 05:12:52;;;;;;;20.63;14.07;;;3.60;91.50;;;;;;4944425;28;20194;-79
2021/04/10 05:15:21;;;;;;;25.97;14.30;;;4.00;90.90;;;;;;4943553;28;20218;-81
2021/04/10 05:17:49;;;;;;;22.13;13.87;;;4.40;90.00;;;;;;4946025;28;20244;-82
2021/04/10 05:20:17;;;;;;;25.73;14.83;;;4.80;86.70;;;;;;4951014;28;20209;-83
2021/04/10 05:22:51;;;;;;;25.17;13.73;;;5.30;84.20;;;;;;4951123;28;20196;-80
2021/04/10 05:25:19;;;;;;;18.97;12.90;;;5.60;82.20;;;;;;4949481;28;20206;-82
2021/04/10 05:27:47;;;;;;;19.97;12.60;;;5.90;81.50;;;;;;4951148;28;20537;-80
2021/04/10 05:30:16;;;;;;;24.23;13.93;;;6.20;80.60;;;;;;4950581;28;20203;-84
2021/04/10 05:32:44;;;;;;;17.30;12.70;;;6.40;80.40;;;;;;4950503;28;20198;-79
2021/04/10 05:35:14;;;;;;;20.67;12.93;;;6.50;79.90;;;;;;4947846;28;20196;-82
2021/04/10 05:37:42;;;;;;;20.93;13.27;;;6.60;79.60;;;;;;4940794;29;20243;-82
2021/04/10 05:40:12;;;;;;;18.77;12.57;;;6.70;79.30;;;;;;4953430;28;20200;-81
2021/04/10 05:42:39;;;;;;;18.40;13.13;;;6.80;79.50;;;;;;4948574;29;20202;-83
2021/04/10 05:45:08;;;;;;;20.30;12.93;;;6.90;79.20;;;;;;4942052;29;20237;-83
2021/04/10 05:47:36;;;;;;;21.37;12.50;;;7.00;78.80;;;;;;4937435;28;20591;-82
2021/04/10 05:50:05;;;;;;;22.97;13.83;;;7.10;78.20;;;;;;4929990;28;20211;-82
2021/04/10 05:52:34;;;;;;;18.47;12.90;;;7.10;78.20;;;;;;4930506;29;20206;-83
2021/04/10 05:55:02;;;;;;;20.83;13.43;;;7.10;77.90;;;;;;4926108;28;20724;-84
2021/04/10 05:57:30;;;;;;;23.20;13.03;;;7.10;77.90;;;;;;4926181;29;20461;-82
2021/04/10 05:59:58;;;;;;;20.53;12.93;;;7.10;78.00;;;;;;4938144;29;20201;-83
2021/04/10 06:02:26;;;;;;;20.37;13.87;;;7.10;78.20;;;;;;4949662;28;20202;-83
2021/04/10 06:04:54;;;;;;;22.60;13.93;;;7.10;77.80;;;;;;4951926;28;20209;-81
2021/04/10 06:07:21;;;;;;;18.83;12.57;;;7.10;78.00;;;;;;4945785;29;20201;-84
2021/04/10 06:09:49;;;;;;;17.37;13.13;;;7.10;77.90;;;;;;4955510;28;20211;-81
2021/04/10 06:12:17;;;;;;;20.40;12.57;;;7.00;78.00;;;;;;4950550;29;20232;-82
2021/04/10 06:14:46;;;;;;;21.60;12.97;;;7.10;78.00;;;;;;4940982;29;20213;-81
2021/04/10 06:17:15;;;;;;;19.47;13.20;;;7.10;77.90;;;;;;4942752;29;20228;-83
2021/04/10 06:19:43;;;;;;;18.93;13.23;;;7.20;78.20;;;;;;4949060;28;20267;-80
2021/04/10 06:22:33;;;;;;;22.17;14.20;;;7.20;78.00;;;;;;4947985;29;20239;-83
2021/04/10 06:25:04;;;;;;;20.87;13.10;;;7.40;77.90;;;;;;4956982;28;20199;-81
2021/04/10 06:27:34;;;;;;;20.77;13.63;;;7.50;77.60;;;;;;4947929;28;20295;-80
2021/04/10 06:30:03;;;;;;;19.43;13.00;;;7.60;77.60;;;;;;4938090;29;20201;-82
2021/04/10 06:32:34;;;;;;;23.50;13.80;;;7.70;77.70;;;;;;4924269;29;20209;-81
2021/04/10 06:35:02;;;;;;;21.47;13.53;;;7.80;77.40;;;;;;4942732;29;20204;-82
2021/04/10 06:37:30;;;;;;;20.60;12.93;;;8.00;77.30;;;;;;4944384;29;20443;-82
2021/04/10 06:39:58;;;;;;;21.30;13.43;;;8.20;77.10;;;;;;4942443;29;20364;-83
2021/04/10 06:42:26;;;;;;;19.57;14.03;;;8.40;77.00;;;;;;4940197;29;20214;-79
2021/04/10 06:44:55;;;;;;;20.67;13.57;;;8.50;77.00;;;;;;4941093;28;20214;-82
2021/04/10 06:47:26;;;;;;;20.67;13.57;;;8.80;76.80;;;;;;4942395;29;20206;-80
2021/04/10 06:49:54;;;;;;;23.73;13.47;;;9.00;76.80;;;;;;4943543;28;20205;-80
2021/04/10 06:52:22;;;;;;;23.17;13.93;;;9.10;76.30;;;;;;4938319;28;20210;-81
2021/04/10 06:55:07;;;;;;;21.00;13.47;;;9.20;76.40;;;;;;4954360;28;20221;-81
2021/04/10 06:57:41;;;;;;;20.80;12.50;;;9.30;75.90;;;;;;4945525;28;20226;-81
2021/04/10 07:00:11;;;;;;;19.77;13.93;;;9.50;75.60;;;;;;4953618;28;20206;-81
2021/04/10 07:02:41;;;;;;;20.00;13.50;;;9.60;75.30;;;;;;4953284;28;20219;-83
2021/04/10 07:05:11;;;;;;;25.37;12.83;;;9.80;74.90;;;;;;4947897;29;20217;-81
2021/04/10 07:07:42;;;;;;;19.80;13.03;;;9.90;74.70;;;;;;4938786;28;20214;-83
2021/04/10 07:10:11;;;;;;;24.60;14.23;;;10.00;74.30;;;;;;4937244;28;20231;-83
2021/04/10 07:12:39;;;;;;;19.50;13.47;;;10.20;74.20;;;;;;4940630;28;20281;-83
2021/04/10 07:15:08;;;;;;;20.23;13.57;;;10.40;73.60;;;;;;4930971;29;20212;-80
2021/04/10 07:17:36;;;;;;;20.57;13.53;;;10.60;73.20;;;;;;4929440;29;20503;-82
2021/04/10 07:20:23;;;;;;;18.30;12.13;;;10.80;72.90;;;;;;4935273;28;20256;-80
2021/04/10 07:22:59;;;;;;;22.83;13.77;;;11.10;72.30;;;;;;4931769;29;20217;-80
2021/04/10 07:25:29;;;;;;;20.90;13.77;;;11.50;72.90;;;;;;4930976;29;20218;-82
2021/04/10 07:28:21;;;;;;;20.77;13.70;;;11.60;71.40;;;;;;4927255;29;20672;-80
2021/04/10 07:30:59;;;;;;;20.67;13.43;;;11.80;70.10;;;;;;4932819;28;20224;-80
2021/04/10 07:33:29;;;;;;;19.77;13.53;;;11.90;69.90;;;;;;4929809;29;20448;-79
2021/04/10 07:36:00;;;;;;;19.10;13.33;;;12.10;70.00;;;;;;4930065;29;20256;-82
2021/04/10 07:38:31;;;;;;;19.87;13.70;;;12.20;69.90;;;;;;4932269;29;20238;-79
2021/04/10 07:41:00;;;;;;;20.17;13.83;;;12.30;68.90;;;;;;4938321;28;20202;-82
2021/04/10 07:43:30;;;;;;;22.20;14.10;;;12.30;68.00;;;;;;4938917;28;20210;-80
2021/04/10 07:46:17;;;;;;;18.67;13.23;;;12.20;67.80;;;;;;4949094;28;21136;-82
2021/04/10 07:49:08;;;;;;;17.40;12.73;;;12.20;67.50;;;;;;4931089;29;20206;-81
2021/04/10 07:51:39;;;;;;;21.23;13.50;;;12.40;67.40;;;;;;4927436;29;20964;-83
2021/04/10 07:54:24;;;;;;;22.03;14.27;;;12.40;66.70;;;;;;4924938;29;20224;-81
2021/04/10 07:56:56;;;;;;;19.23;14.03;;;12.70;67.20;;;;;;4935697;29;20217;-81
2021/04/10 07:59:24;;;;;;;22.30;14.30;;;12.90;66.90;;;;;;4934534;29;20210;-82
2021/04/10 08:01:54;;;;;;;20.33;13.63;;;13.00;65.80;;;;;;4943812;29;20230;-81
2021/04/10 08:04:24;;;;;;;19.57;14.77;;;13.00;65.20;;;;;;4946748;28;20262;-79
2021/04/10 08:07:00;;;;;;;21.43;13.80;;;13.00;65.40;;;;;;4944443;28;20192;-81
2021/04/10 08:09:34;;;;;;;22.07;14.87;;;12.80;65.80;;;;;;4929854;29;20222;-80
2021/04/10 08:12:06;;;;;;;18.80;12.73;;;12.90;65.80;;;;;;4934158;28;20213;-81
2021/04/10 08:14:42;;;;;;;18.17;13.90;;;13.00;64.80;;;;;;4937222;29;20713;-81
2021/04/10 08:17:11;;;;;;;26.93;15.03;;;13.00;64.50;;;;;;4923731;29;20233;-82
2021/04/10 08:19:39;;;;;;;19.60;14.00;;;12.90;64.50;;;;;;4936852;29;20204;-82
2021/04/10 08:22:14;;;;;;;22.53;13.63;;;12.90;64.80;;;;;;4949006;28;20190;-82
2021/04/10 08:24:42;;;;;;;34.80;22.53;;;12.90;64.30;;;;;;4944411;28;20205;-83
2021/04/10 08:27:13;;;;;;;18.70;13.37;;;12.90;64.60;;;;;;4942928;28;20585;-82
2021/04/10 08:29:42;;;;;;;23.33;13.57;;;12.80;64.60;;;;;;4924458;29;20313;-82
2021/04/10 08:32:14;;;;;;;20.33;13.50;;;12.80;64.30;;;;;;4928226;29;20228;-83
2021/04/10 08:34:43;;;;;;;18.80;13.57;;;12.80;64.20;;;;;;4927124;29;20206;-83
2021/04/10 08:37:14;;;;;;;20.23;13.33;;;12.90;63.80;;;;;;4924582;28;20230;-84
2021/04/10 08:39:46;;;;;;;19.03;13.77;;;13.10;63.90;;;;;;4928026;29;20205;-83
2021/04/10 08:42:17;;;;;;;21.47;13.97;;;13.10;63.50;;;;;;4926708;29;20207;-83
2021/04/10 08:44:48;;;;;;;19.60;13.47;;;13.20;63.80;;;;;;4934279;28;20620;-82
2021/04/10 08:47:18;;;;;;;16.67;12.57;;;13.20;63.10;;;;;;4936136;28;20680;-82
2021/04/10 08:49:49;;;;;;;20.53;12.70;;;13.20;62.60;;;;;;4929475;29;20202;-82
2021/04/10 08:52:24;;;;;;;21.57;13.33;;;13.30;62.90;;;;;;4945514;28;20222;-84
2021/04/10 08:54:54;;;;;;;18.07;12.30;;;13.50;62.50;;;;;;4934285;28;20343;-84
2021/04/10 08:57:35;;;;;;;21.33;13.77;;;13.80;62.10;;;;;;4930498;29;20226;-81
2021/04/10 09:00:17;;;;;;;20.60;12.80;;;13.90;61.40;;;;;;4932567;29;20280;-83
2021/04/10 09:02:54;;;;;;;18.97;11.70;;;14.00;60.70;;;;;;4922353;29;20245;-81
2021/04/10 09:05:23;;;;;;;15.47;11.20;;;14.10;60.70;;;;;;4932988;29;20268;-82
2021/04/10 09:08:09;;;;;;;19.97;12.17;;;14.40;60.50;;;;;;4925451;29;20242;-82
2021/04/10 09:10:45;;;;;;;20.00;12.10;;;14.40;59.80;;;;;;4926683;29;20335;-84
2021/04/10 09:13:41;;;;;;;21.33;13.17;;;14.60;60.00;;;;;;4931610;29;20209;-84
2021/04/10 09:16:39;;;;;;;18.57;12.83;;;15.00;59.70;;;;;;4915918;29;20218;-81
2021/04/10 09:19:17;;;;;;;18.93;13.07;;;15.40;58.20;;;;;;4941543;29;20225;-81
2021/04/10 09:21:50;;;;;;;18.70;11.33;;;15.40;56.80;;;;;;4928195;29;20234;-84
2021/04/10 09:24:25;;;;;;;16.33;11.60;;;15.40;54.80;;;;;;4929650;29;20202;-83
2021/04/10 09:26:54;;;;;;;19.17;12.80;;;15.60;55.40;;;;;;4929190;28;20797;-83
2021/04/10 09:29:23;;;;;;;18.20;13.20;;;15.60;54.80;;;;;;4945548;28;20190;-81
2021/04/10 09:31:57;;;;;;;17.27;12.80;;;15.70;54.70;;;;;;4935928;28;20198;-81
2021/04/10 09:34:49;;;;;;;19.03;13.00;;;15.90;55.20;;;;;;4924698;29;20224;-84
2021/04/10 09:37:50;;;;;;;18.73;12.07;;;16.10;53.40;;;;;;4928911;29;20301;-83
2021/04/10 09:40:22;;;;;;;18.77;12.53;;;16.10;53.50;;;;;;4928269;29;20216;-83
2021/04/10 09:42:53;;;;;;;17.57;11.80;;;15.80;52.30;;;;;;4932058;29;20235;-83
2021/04/10 09:45:34;;;;;;;17.60;12.07;;;15.70;52.00;;;;;;4933062;29;20356;-82
2021/04/10 09:48:20;;;;;;;18.43;12.20;;;15.80;52.50;;;;;;4940696;28;20214;-83
2021/04/10 09:51:14;;;;;;;16.00;11.13;;;16.00;51.70;;;;;;4941972;28;20202;-84
2021/04/10 09:53:50;;;;;;;15.87;11.40;;;16.20;50.10;;;;;;4896816;28;20462;-84
2021/04/10 09:56:20;;;;;;;18.93;11.73;;;16.10;49.90;;;;;;4933226;29;20703;-80
2021/04/10 09:58:55;;;;;;;15.87;11.57;;;16.20;50.90;;;;;;4926613;29;20233;-84
2021/04/10 10:01:29;;;;;;;19.37;12.27;;;16.10;50.40;;;;;;4940755;28;20472;-84
2021/04/10 10:03:57;;;;;;;18.30;12.70;;;16.00;50.00;;;;;;4935813;29;20211;-81
2021/04/10 10:06:34;;;;;;;18.73;13.00;;;15.80;49.90;;;;;;4952838;28;20756;-84
2021/04/10 10:09:26;;;;;;;19.53;12.70;;;15.70;49.80;;;;;;4929761;29;20576;-84
2021/04/10 10:11:57;;;;;;;17.03;12.10;;;15.50;51.00;;;;;;4927563;29;20221;-85
2021/04/10 10:14:25;;;;;;;17.80;12.20;;;15.30;50.20;;;;;;4936487;29;20586;-81
2021/04/10 10:16:54;;;;;;;15.87;12.03;;;15.30;50.10;;;;;;4947601;28;20232;-83
2021/04/10 10:19:24;;;;;;;17.37;12.37;;;15.30;50.20;;;;;;4950193;28;20289;-82
2021/04/10 10:21:53;;;;;;;17.07;12.03;;;15.40;49.30;;;;;;4943421;28;20213;-81
2021/04/10 10:24:22;;;;;;;17.37;11.63;;;15.60;48.40;;;;;;4946275;28;20265;-82
2021/04/10 10:26:51;;;;;;;15.50;11.37;;;15.60;48.90;;;;;;4954585;28;20206;-83
2021/04/10 10:29:19;;;;;;;17.37;12.37;;;15.70;48.20;;;;;;4929299;29;20217;-83
2021/04/10 10:31:50;;;;;;;16.13;12.23;;;15.70;48.60;;;;;;4937014;29;20760;-84
2021/04/10 10:34:20;;;;;;;17.37;11.97;;;15.80;49.60;;;;;;4937630;29;20211;-82
2021/04/10 10:36:52;;;;;;;16.60;12.50;;;15.80;49.20;;;;;;4940188;29;20230;-82
2021/04/10 10:39:26;;;;;;;18.00;11.97;;;15.70;48.90;;;;;;4941087;29;20250;-80
2021/04/10 10:41:57;;;;;;;16.03;11.63;;;15.70;49.10;;;;;;4936685;29;20214;-83
2021/04/10 10:44:25;;;;;;;20.77;12.67;;;15.70;48.80;;;;;;4942563;28;20233;-83
2021/04/10 10:47:01;;;;;;;17.47;12.13;;;15.80;47.90;;;;;;4943460;29;20206;-80
2021/04/10 10:49:29;;;;;;;16.10;11.40;;;15.80;47.20;;;;;;4941326;29;20198;-81
2021/04/10 10:51:57;;;;;;;18.77;11.63;;;15.90;47.90;;;;;;4936602;29;20202;-82
2021/04/10 10:54:33;;;;;;;18.20;12.47;;;16.00;46.60;;;;;;4942850;28;20206;-82
2021/04/10 10:57:06;;;;;;;16.93;11.40;;;16.20;47.70;;;;;;4936124;29;20831;-82
2021/04/10 10:59:56;;;;;;;17.57;12.40;;;16.40;49.10;;;;;;4936826;29;20202;-84
2021/04/10 11:02:24;;;;;;;16.60;12.47;;;16.70;48.90;;;;;;4935039;29;20210;-83
2021/04/10 11:04:54;;;;;;;17.20;12.90;;;17.00;46.10;;;;;;4929337;29;20676;-82
2021/04/10 11:07:24;;;;;;;16.70;12.40;;;17.20;45.80;;;;;;4926742;29;20639;-84
2021/04/10 11:09:53;;;;;;;18.13;12.20;;;17.30;45.00;;;;;;4931198;29;20212;-83
2021/04/10 11:12:22;;;;;;;16.60;11.87;;;17.30;44.50;;;;;;4929265;29;20327;-83
2021/04/10 11:14:57;;;;;;;16.77;12.57;;;17.50;44.40;;;;;;4949421;28;20186;-84
2021/04/10 11:17:31;;;;;;;15.77;11.93;;;17.40;43.20;;;;;;4942610;28;20196;-82
2021/04/10 11:20:02;;;;;;;16.87;12.17;;;17.40;43.30;;;;;;4932519;28;20293;-81
2021/04/10 11:22:29;;;;;;;14.60;11.97;;;17.30;43.40;;;;;;4926678;28;20205;-83
2021/04/10 11:25:01;;;;;;;16.60;12.30;;;17.40;42.90;;;;;;4922871;29;20202;-80
2021/04/10 11:27:34;;;;;;;15.70;12.10;;;17.50;43.80;;;;;;4928825;29;20215;-84
2021/04/10 11:30:09;;;;;;;14.13;11.00;;;17.60;43.10;;;;;;4928577;29;20724;-82
2021/04/10 11:32:40;;;;;;;15.77;12.43;;;17.60;42.70;;;;;;4927129;28;20639;-82
2021/04/10 11:35:14;;;;;;;19.47;13.03;;;17.60;42.40;;;;;;4930459;29;20428;-84
2021/04/10 11:37:49;;;;;;;18.23;12.90;;;17.70;43.20;;;;;;4932494;29;20221;-84
2021/04/10 11:40:38;;;;;;;19.90;13.07;;;17.70;42.70;;;;;;4935641;28;20216;-81
2021/04/10 11:43:12;;;;;;;16.73;12.80;;;17.80;42.30;;;;;;4925363;29;20518;-84
2021/04/10 11:45:46;;;;;;;17.13;12.73;;;17.80;42.50;;;;;;4932970;29;20210;-83
2021/04/10 11:48:17;;;;;;;18.30;12.30;;;17.80;42.20;;;;;;4951135;28;20212;-83
2021/04/10 11:50:53;;;;;;;16.33;11.00;;;17.80;42.50;;;;;;4947915;28;20240;-82
2021/04/10 11:53:27;;;;;;;15.93;11.67;;;17.70;41.50;;;;;;4949438;28;20206;-83
2021/04/10 11:55:56;;;;;;;16.07;11.53;;;17.70;41.50;;;;;;4949735;28;20246;-81
2021/04/10 11:58:30;;;;;;;13.53;11.90;;;17.70;41.10;;;;;;4945010;29;20643;-82
2021/04/10 12:01:07;;;;;;;18.57;12.53;;;17.70;42.00;;;;;;4941440;29;20206;-86
2021/04/10 12:03:47;;;;;;;13.90;11.17;;;17.80;42.00;;;;;;4941398;29;20199;-84
2021/04/10 12:06:30;;;;;;;14.10;11.40;;;18.00;41.30;;;;;;4941220;29;20226;-82
2021/04/10 12:09:04;;;;;;;18.17;11.20;;;17.90;41.50;;;;;;4941539;28;20409;-81
2021/04/10 12:11:32;;;;;;;15.40;11.40;;;18.00;41.30;;;;;;4936332;29;20571;-83
2021/04/10 12:14:03;;;;;;;14.93;11.13;;;18.10;41.30;;;;;;4939106;29;20219;-81
2021/04/10 12:16:32;;;;;;;15.83;12.20;;;18.30;40.90;;;;;;4931454;29;20206;-86
2021/04/10 12:18:59;;;;;;;16.40;11.80;;;18.40;40.50;;;;;;4937667;29;20644;-84
2021/04/10 12:21:28;;;;;;;14.83;11.40;;;18.30;40.00;;;;;;4928425;29;20274;-83
2021/04/10 12:23:56;;;;;;;15.63;12.43;;;18.00;40.10;;;;;;4947169;28;20202;-84
2021/04/10 12:26:23;;;;;;;15.17;12.23;;;17.90;41.30;;;;;;4941228;28;20210;-82
2021/04/10 12:28:52;;;;;;;14.27;11.43;;;17.80;41.00;;;;;;4953808;28;20268;-83
2021/04/10 12:31:22;;;;;;;14.90;11.00;;;17.60;41.20;;;;;;4948929;29;20206;-84
2021/04/10 12:33:51;;;;;;;16.50;11.43;;;17.60;41.50;;;;;;4945408;28;20210;-83
2021/04/10 12:36:19;;;;;;;14.97;11.63;;;17.70;40.90;;;;;;4947869;29;20306;-83
2021/04/10 12:38:47;;;;;;;21.17;12.20;;;17.60;41.50;;;;;;4948850;28;20225;-83
2021/04/10 12:41:15;;;;;;;17.80;11.17;;;17.50;41.50;;;;;;4953801;28;20224;-83
2021/04/10 12:43:44;;;;;;;13.93;11.27;;;17.50;40.90;;;;;;4952012;28;20322;-80
2021/04/10 12:46:13;;;;;;;13.73;11.47;;;17.30;40.80;;;;;;4943807;28;20309;-82
2021/04/10 12:48:41;;;;;;;12.57;10.20;;;17.30;41.40;;;;;;4944755;29;20237;-81
2021/04/10 12:51:10;;;;;;;11.70;9.83;;;17.20;42.50;;;;;;4951275;28;20214;-82
2021/04/10 12:53:39;;;;;;;11.27;9.83;;;17.20;41.10;;;;;;4950612;29;20224;-82